sensor_id;sensor_type;location;lat;lon;timestamp;P1;durP1;ratioP1;P2;durP2;ratioP2
15603;SDS011;7902;49.042;9.092;2023-07-29T00:00:54;13.93;;;2.27;;
15603;SDS011;7902;49.042;9.092;2023-07-29T00:03:21;18.83;;;3.67;;
15603;SDS011;7902;49.042;9.092;2023-07-29T00:05:47;20.73;;;2.80;;
15603;SDS011;7902;49.042;9.092;2023-07-29T00:08:13;16.23;;;2.50;;
15603;SDS011;7902;49.042;9.092;2023-07-29T00:10:39;16.80;;;2.40;;
15603;SDS011;7902;49.042;9.092;2023-07-29T00:13:05;15.43;;;2.20;;
15603;SDS011;7902;49.042;9.092;2023-07-29T00:15:32;14.10;;;2.10;;
15603;SDS011;7902;49.042;9.092;2023-07-29T00:17:58;14.50;;;2.00;;
15603;SDS011;7902;49.042;9.092;2023-07-29T00:20:24;14.57;;;2.13;;
15603;SDS011;7902;49.042;9.092;2023-07-29T00:22:50;14.87;;;2.10;;
15603;SDS011;7902;49.042;9.092;2023-07-29T00:25:18;16.43;;;2.50;;
15603;SDS011;7902;49.042;9.092;2023-07-29T00:27:44;14.73;;;2.43;;
15603;SDS011;7902;49.042;9.092;2023-07-29T00:30:10;17.23;;;2.13;;
15603;SDS011;7902;49.042;9.092;2023-07-29T00:32:36;16.00;;;2.10;;
15603;SDS011;7902;49.042;9.092;2023-07-29T00:35:02;14.43;;;2.07;;
15603;SDS011;7902;49.042;9.092;2023-07-29T00:37:29;16.40;;;1.90;;
15603;SDS011;7902;49.042;9.092;2023-07-29T00:39:56;16.17;;;2.40;;
15603;SDS011;7902;49.042;9.092;2023-07-29T00:42:22;21.90;;;3.30;;
15603;SDS011;7902;49.042;9.092;2023-07-29T00:44:48;19.10;;;2.20;;
15603;SDS011;7902;49.042;9.092;2023-07-29T00:47:15;14.20;;;1.70;;
15603;SDS011;7902;49.042;9.092;2023-07-29T00:49:41;16.20;;;1.53;;
15603;SDS011;7902;49.042;9.092;2023-07-29T00:52:09;14.90;;;1.90;;
15603;SDS011;7902;49.042;9.092;2023-07-29T00:54:40;19.43;;;2.37;;
15603;SDS011;7902;49.042;9.092;2023-07-29T00:57:07;13.80;;;2.00;;
15603;SDS011;7902;49.042;9.092;2023-07-29T00:59:35;14.40;;;2.17;;
15603;SDS011;7902;49.042;9.092;2023-07-29T01:02:01;19.13;;;2.70;;
15603;SDS011;7902;49.042;9.092;2023-07-29T01:04:28;14.07;;;2.00;;
15603;SDS011;7902;49.042;9.092;2023-07-29T01:06:58;16.40;;;2.30;;
15603;SDS011;7902;49.042;9.092;2023-07-29T01:09:39;15.50;;;2.10;;
15603;SDS011;7902;49.042;9.092;2023-07-29T01:15:11;17.33;;;2.53;;
15603;SDS011;7902;49.042;9.092;2023-07-29T01:17:49;14.73;;;2.80;;
15603;SDS011;7902;49.042;9.092;2023-07-29T01:20:21;20.93;;;2.60;;
15603;SDS011;7902;49.042;9.092;2023-07-29T01:22:50;22.13;;;3.50;;
15603;SDS011;7902;49.042;9.092;2023-07-29T01:25:17;17.73;;;2.50;;
15603;SDS011;7902;49.042;9.092;2023-07-29T01:27:44;14.13;;;2.53;;
15603;SDS011;7902;49.042;9.092;2023-07-29T01:30:10;14.53;;;2.30;;
15603;SDS011;7902;49.042;9.092;2023-07-29T01:32:41;14.00;;;2.17;;
15603;SDS011;7902;49.042;9.092;2023-07-29T01:35:27;26.53;;;2.33;;
15603;SDS011;7902;49.042;9.092;2023-07-29T01:38:05;20.10;;;2.27;;
15603;SDS011;7902;49.042;9.092;2023-07-29T01:40:39;19.47;;;2.20;;
15603;SDS011;7902;49.042;9.092;2023-07-29T01:43:06;19.33;;;2.20;;
15603;SDS011;7902;49.042;9.092;2023-07-29T01:45:33;17.40;;;3.07;;
15603;SDS011;7902;49.042;9.092;2023-07-29T01:48:07;16.13;;;2.20;;
15603;SDS011;7902;49.042;9.092;2023-07-29T01:50:33;16.10;;;2.20;;
15603;SDS011;7902;49.042;9.092;2023-07-29T01:52:59;13.40;;;1.80;;
15603;SDS011;7902;49.042;9.092;2023-07-29T01:55:26;14.43;;;2.23;;
15603;SDS011;7902;49.042;9.092;2023-07-29T01:57:52;20.63;;;2.70;;
15603;SDS011;7902;49.042;9.092;2023-07-29T02:00:18;13.67;;;2.33;;
15603;SDS011;7902;49.042;9.092;2023-07-29T02:02:44;14.57;;;2.67;;
15603;SDS011;7902;49.042;9.092;2023-07-29T02:05:11;15.63;;;2.40;;
15603;SDS011;7902;49.042;9.092;2023-07-29T02:07:37;18.63;;;2.47;;
15603;SDS011;7902;49.042;9.092;2023-07-29T02:10:03;16.93;;;2.63;;
15603;SDS011;7902;49.042;9.092;2023-07-29T02:12:29;17.80;;;2.50;;
15603;SDS011;7902;49.042;9.092;2023-07-29T02:14:55;15.30;;;2.30;;
15603;SDS011;7902;49.042;9.092;2023-07-29T02:17:21;14.07;;;2.40;;
15603;SDS011;7902;49.042;9.092;2023-07-29T02:19:47;14.43;;;2.50;;
15603;SDS011;7902;49.042;9.092;2023-07-29T02:22:13;19.40;;;2.80;;
15603;SDS011;7902;49.042;9.092;2023-07-29T02:24:40;14.40;;;2.57;;
15603;SDS011;7902;49.042;9.092;2023-07-29T02:27:06;15.30;;;2.90;;
15603;SDS011;7902;49.042;9.092;2023-07-29T02:29:32;15.70;;;2.73;;
15603;SDS011;7902;49.042;9.092;2023-07-29T02:31:59;19.43;;;2.77;;
15603;SDS011;7902;49.042;9.092;2023-07-29T02:34:25;14.80;;;2.70;;
15603;SDS011;7902;49.042;9.092;2023-07-29T02:36:51;15.90;;;3.20;;
15603;SDS011;7902;49.042;9.092;2023-07-29T02:39:17;21.13;;;2.97;;
15603;SDS011;7902;49.042;9.092;2023-07-29T02:41:43;15.50;;;2.40;;
15603;SDS011;7902;49.042;9.092;2023-07-29T02:44:09;19.20;;;2.07;;
15603;SDS011;7902;49.042;9.092;2023-07-29T02:46:34;18.10;;;2.23;;
15603;SDS011;7902;49.042;9.092;2023-07-29T02:49:03;17.20;;;2.70;;
15603;SDS011;7902;49.042;9.092;2023-07-29T02:51:30;20.20;;;2.97;;
15603;SDS011;7902;49.042;9.092;2023-07-29T02:53:56;15.90;;;2.97;;
15603;SDS011;7902;49.042;9.092;2023-07-29T02:56:23;17.10;;;2.53;;
15603;SDS011;7902;49.042;9.092;2023-07-29T02:58:49;15.30;;;2.20;;
15603;SDS011;7902;49.042;9.092;2023-07-29T03:01:16;20.80;;;2.30;;
15603;SDS011;7902;49.042;9.092;2023-07-29T03:03:43;20.90;;;2.70;;
15603;SDS011;7902;49.042;9.092;2023-07-29T03:06:09;15.43;;;2.47;;
15603;SDS011;7902;49.042;9.092;2023-07-29T03:08:36;16.47;;;2.87;;
15603;SDS011;7902;49.042;9.092;2023-07-29T03:11:06;17.23;;;2.50;;
15603;SDS011;7902;49.042;9.092;2023-07-29T03:13:33;17.93;;;2.57;;
15603;SDS011;7902;49.042;9.092;2023-07-29T03:16:08;19.93;;;2.53;;
15603;SDS011;7902;49.042;9.092;2023-07-29T03:18:41;14.00;;;2.20;;
15603;SDS011;7902;49.042;9.092;2023-07-29T03:21:08;17.13;;;2.93;;
15603;SDS011;7902;49.042;9.092;2023-07-29T03:23:35;16.20;;;3.00;;
15603;SDS011;7902;49.042;9.092;2023-07-29T03:26:02;17.70;;;2.67;;
15603;SDS011;7902;49.042;9.092;2023-07-29T03:28:35;17.57;;;2.53;;
15603;SDS011;7902;49.042;9.092;2023-07-29T03:31:02;15.83;;;2.93;;
15603;SDS011;7902;49.042;9.092;2023-07-29T03:33:28;15.37;;;2.23;;
15603;SDS011;7902;49.042;9.092;2023-07-29T03:35:54;18.30;;;2.93;;
15603;SDS011;7902;49.042;9.092;2023-07-29T03:38:20;18.00;;;2.43;;
15603;SDS011;7902;49.042;9.092;2023-07-29T03:40:46;15.43;;;2.67;;
15603;SDS011;7902;49.042;9.092;2023-07-29T03:43:12;17.53;;;2.47;;
15603;SDS011;7902;49.042;9.092;2023-07-29T03:45:40;14.57;;;2.03;;
15603;SDS011;7902;49.042;9.092;2023-07-29T03:48:06;19.63;;;2.67;;
15603;SDS011;7902;49.042;9.092;2023-07-29T03:50:33;16.20;;;1.87;;
15603;SDS011;7902;49.042;9.092;2023-07-29T03:53:03;13.63;;;2.00;;
15603;SDS011;7902;49.042;9.092;2023-07-29T03:55:30;21.40;;;2.60;;
15603;SDS011;7902;49.042;9.092;2023-07-29T03:57:57;22.13;;;2.30;;
15603;SDS011;7902;49.042;9.092;2023-07-29T04:00:23;14.37;;;1.90;;
15603;SDS011;7902;49.042;9.092;2023-07-29T04:02:49;16.63;;;2.03;;
15603;SDS011;7902;49.042;9.092;2023-07-29T04:05:16;15.10;;;2.20;;
15603;SDS011;7902;49.042;9.092;2023-07-29T04:07:42;15.77;;;2.43;;
15603;SDS011;7902;49.042;9.092;2023-07-29T04:10:08;16.20;;;2.10;;
15603;SDS011;7902;49.042;9.092;2023-07-29T04:12:34;21.10;;;2.37;;
15603;SDS011;7902;49.042;9.092;2023-07-29T04:15:01;16.60;;;2.30;;
15603;SDS011;7902;49.042;9.092;2023-07-29T04:17:27;14.23;;;2.23;;
15603;SDS011;7902;49.042;9.092;2023-07-29T04:19:53;16.03;;;1.80;;
15603;SDS011;7902;49.042;9.092;2023-07-29T04:22:19;14.60;;;1.80;;
15603;SDS011;7902;49.042;9.092;2023-07-29T04:24:45;16.00;;;2.77;;
15603;SDS011;7902;49.042;9.092;2023-07-29T04:27:11;16.23;;;2.50;;
15603;SDS011;7902;49.042;9.092;2023-07-29T04:29:36;18.00;;;2.40;;
15603;SDS011;7902;49.042;9.092;2023-07-29T04:32:03;14.80;;;2.07;;
15603;SDS011;7902;49.042;9.092;2023-07-29T04:34:29;15.50;;;2.17;;
15603;SDS011;7902;49.042;9.092;2023-07-29T04:36:55;14.80;;;2.10;;
15603;SDS011;7902;49.042;9.092;2023-07-29T04:39:20;17.93;;;2.10;;
15603;SDS011;7902;49.042;9.092;2023-07-29T04:41:46;21.87;;;2.00;;
15603;SDS011;7902;49.042;9.092;2023-07-29T04:44:12;20.70;;;2.23;;
15603;SDS011;7902;49.042;9.092;2023-07-29T04:46:38;21.63;;;2.40;;
15603;SDS011;7902;49.042;9.092;2023-07-29T04:49:04;24.43;;;2.70;;
15603;SDS011;7902;49.042;9.092;2023-07-29T04:51:30;19.80;;;2.87;;
15603;SDS011;7902;49.042;9.092;2023-07-29T04:54:00;18.03;;;2.67;;
15603;SDS011;7902;49.042;9.092;2023-07-29T04:56:26;18.17;;;2.50;;
15603;SDS011;7902;49.042;9.092;2023-07-29T04:58:52;19.47;;;2.00;;
15603;SDS011;7902;49.042;9.092;2023-07-29T05:01:18;17.53;;;1.90;;
15603;SDS011;7902;49.042;9.092;2023-07-29T05:03:44;15.90;;;1.70;;
15603;SDS011;7902;49.042;9.092;2023-07-29T05:06:10;16.23;;;2.20;;
15603;SDS011;7902;49.042;9.092;2023-07-29T05:08:36;14.43;;;1.40;;
15603;SDS011;7902;49.042;9.092;2023-07-29T05:11:02;14.33;;;1.90;;
15603;SDS011;7902;49.042;9.092;2023-07-29T05:13:28;16.20;;;1.83;;
15603;SDS011;7902;49.042;9.092;2023-07-29T05:15:54;19.43;;;2.00;;
15603;SDS011;7902;49.042;9.092;2023-07-29T05:18:20;13.83;;;1.53;;
15603;SDS011;7902;49.042;9.092;2023-07-29T05:20:46;15.67;;;1.60;;
15603;SDS011;7902;49.042;9.092;2023-07-29T05:23:12;12.70;;;1.60;;
15603;SDS011;7902;49.042;9.092;2023-07-29T05:25:38;13.20;;;1.93;;
15603;SDS011;7902;49.042;9.092;2023-07-29T05:28:04;15.73;;;1.80;;
15603;SDS011;7902;49.042;9.092;2023-07-29T05:30:31;19.90;;;1.90;;
15603;SDS011;7902;49.042;9.092;2023-07-29T05:32:59;16.80;;;1.70;;
15603;SDS011;7902;49.042;9.092;2023-07-29T05:35:26;13.40;;;1.47;;
15603;SDS011;7902;49.042;9.092;2023-07-29T05:37:52;14.10;;;1.47;;
15603;SDS011;7902;49.042;9.092;2023-07-29T05:40:18;17.80;;;1.97;;
15603;SDS011;7902;49.042;9.092;2023-07-29T05:42:44;12.80;;;1.80;;
15603;SDS011;7902;49.042;9.092;2023-07-29T05:45:10;13.97;;;2.27;;
15603;SDS011;7902;49.042;9.092;2023-07-29T05:47:37;14.07;;;2.03;;
15603;SDS011;7902;49.042;9.092;2023-07-29T05:50:04;17.53;;;1.60;;
15603;SDS011;7902;49.042;9.092;2023-07-29T05:52:31;14.67;;;1.83;;
15603;SDS011;7902;49.042;9.092;2023-07-29T05:54:57;13.40;;;1.80;;
15603;SDS011;7902;49.042;9.092;2023-07-29T05:57:23;14.03;;;1.90;;
15603;SDS011;7902;49.042;9.092;2023-07-29T05:59:49;14.57;;;1.73;;
15603;SDS011;7902;49.042;9.092;2023-07-29T06:02:15;14.43;;;1.67;;
15603;SDS011;7902;49.042;9.092;2023-07-29T06:04:41;19.53;;;1.87;;
15603;SDS011;7902;49.042;9.092;2023-07-29T06:07:07;14.37;;;2.10;;
15603;SDS011;7902;49.042;9.092;2023-07-29T06:09:33;17.37;;;1.90;;
15603;SDS011;7902;49.042;9.092;2023-07-29T06:11:59;17.13;;;1.90;;
15603;SDS011;7902;49.042;9.092;2023-07-29T06:14:25;13.53;;;1.50;;
15603;SDS011;7902;49.042;9.092;2023-07-29T06:16:51;19.90;;;2.03;;
15603;SDS011;7902;49.042;9.092;2023-07-29T06:19:18;14.47;;;2.13;;
15603;SDS011;7902;49.042;9.092;2023-07-29T06:21:45;18.00;;;1.83;;
15603;SDS011;7902;49.042;9.092;2023-07-29T06:24:11;15.43;;;2.07;;
15603;SDS011;7902;49.042;9.092;2023-07-29T06:26:37;20.13;;;1.87;;
15603;SDS011;7902;49.042;9.092;2023-07-29T06:29:02;17.20;;;2.00;;
15603;SDS011;7902;49.042;9.092;2023-07-29T06:31:28;14.00;;;1.70;;
15603;SDS011;7902;49.042;9.092;2023-07-29T06:33:55;18.33;;;2.17;;
15603;SDS011;7902;49.042;9.092;2023-07-29T06:36:21;17.77;;;2.13;;
15603;SDS011;7902;49.042;9.092;2023-07-29T06:38:47;22.33;;;1.77;;
15603;SDS011;7902;49.042;9.092;2023-07-29T06:41:13;15.70;;;1.70;;
15603;SDS011;7902;49.042;9.092;2023-07-29T06:43:39;14.90;;;1.40;;
15603;SDS011;7902;49.042;9.092;2023-07-29T06:46:05;16.20;;;2.00;;
15603;SDS011;7902;49.042;9.092;2023-07-29T06:48:31;18.13;;;1.80;;
15603;SDS011;7902;49.042;9.092;2023-07-29T06:50:57;15.50;;;1.80;;
15603;SDS011;7902;49.042;9.092;2023-07-29T06:53:26;24.50;;;2.13;;
15603;SDS011;7902;49.042;9.092;2023-07-29T06:55:52;21.20;;;1.43;;
15603;SDS011;7902;49.042;9.092;2023-07-29T06:58:18;16.70;;;1.87;;
15603;SDS011;7902;49.042;9.092;2023-07-29T07:00:45;16.70;;;2.07;;
15603;SDS011;7902;49.042;9.092;2023-07-29T07:03:11;16.47;;;1.80;;
15603;SDS011;7902;49.042;9.092;2023-07-29T07:05:37;16.10;;;1.70;;
15603;SDS011;7902;49.042;9.092;2023-07-29T07:08:04;16.20;;;1.90;;
15603;SDS011;7902;49.042;9.092;2023-07-29T07:10:30;17.80;;;1.57;;
15603;SDS011;7902;49.042;9.092;2023-07-29T07:12:57;18.50;;;1.87;;
15603;SDS011;7902;49.042;9.092;2023-07-29T07:15:23;16.27;;;1.90;;
15603;SDS011;7902;49.042;9.092;2023-07-29T07:17:50;19.07;;;1.60;;
15603;SDS011;7902;49.042;9.092;2023-07-29T07:20:17;17.43;;;1.63;;
15603;SDS011;7902;49.042;9.092;2023-07-29T07:22:48;17.23;;;1.53;;
15603;SDS011;7902;49.042;9.092;2023-07-29T07:25:14;14.97;;;1.63;;
15603;SDS011;7902;49.042;9.092;2023-07-29T07:27:40;13.53;;;1.20;;
15603;SDS011;7902;49.042;9.092;2023-07-29T07:30:06;14.40;;;1.20;;
15603;SDS011;7902;49.042;9.092;2023-07-29T07:32:32;13.20;;;1.10;;
15603;SDS011;7902;49.042;9.092;2023-07-29T07:35:00;14.83;;;1.20;;
15603;SDS011;7902;49.042;9.092;2023-07-29T07:37:27;13.60;;;1.40;;
15603;SDS011;7902;49.042;9.092;2023-07-29T07:39:55;12.50;;;0.93;;
15603;SDS011;7902;49.042;9.092;2023-07-29T07:42:21;14.47;;;1.60;;
15603;SDS011;7902;49.042;9.092;2023-07-29T07:44:47;13.50;;;1.60;;
15603;SDS011;7902;49.042;9.092;2023-07-29T07:47:13;14.10;;;1.30;;
15603;SDS011;7902;49.042;9.092;2023-07-29T07:49:39;17.00;;;1.90;;
15603;SDS011;7902;49.042;9.092;2023-07-29T07:52:05;23.13;;;2.00;;
15603;SDS011;7902;49.042;9.092;2023-07-29T07:54:31;16.73;;;1.63;;
15603;SDS011;7902;49.042;9.092;2023-07-29T07:56:56;12.80;;;1.10;;
15603;SDS011;7902;49.042;9.092;2023-07-29T07:59:22;15.93;;;1.67;;
15603;SDS011;7902;49.042;9.092;2023-07-29T08:01:48;13.37;;;1.20;;
15603;SDS011;7902;49.042;9.092;2023-07-29T08:04:14;13.50;;;1.37;;
15603;SDS011;7902;49.042;9.092;2023-07-29T08:06:40;26.13;;;1.60;;
15603;SDS011;7902;49.042;9.092;2023-07-29T08:09:06;13.97;;;1.37;;
15603;SDS011;7902;49.042;9.092;2023-07-29T08:11:32;15.50;;;1.17;;
15603;SDS011;7902;49.042;9.092;2023-07-29T08:13:58;13.60;;;1.00;;
15603;SDS011;7902;49.042;9.092;2023-07-29T08:16:24;14.30;;;1.27;;
15603;SDS011;7902;49.042;9.092;2023-07-29T08:18:50;14.40;;;1.37;;
15603;SDS011;7902;49.042;9.092;2023-07-29T08:21:16;14.47;;;1.23;;
15603;SDS011;7902;49.042;9.092;2023-07-29T08:23:42;15.00;;;1.33;;
15603;SDS011;7902;49.042;9.092;2023-07-29T08:26:08;15.00;;;1.27;;
15603;SDS011;7902;49.042;9.092;2023-07-29T08:28:34;14.37;;;1.30;;
15603;SDS011;7902;49.042;9.092;2023-07-29T08:31:02;17.60;;;1.33;;
15603;SDS011;7902;49.042;9.092;2023-07-29T08:33:28;15.17;;;1.30;;
15603;SDS011;7902;49.042;9.092;2023-07-29T08:35:55;17.03;;;1.07;;
15603;SDS011;7902;49.042;9.092;2023-07-29T08:38:21;15.97;;;1.10;;
15603;SDS011;7902;49.042;9.092;2023-07-29T08:43:38;16.13;;;1.43;;
15603;SDS011;7902;49.042;9.092;2023-07-29T08:46:06;14.03;;;1.10;;
15603;SDS011;7902;49.042;9.092;2023-07-29T08:48:35;16.10;;;1.50;;
15603;SDS011;7902;49.042;9.092;2023-07-29T08:51:05;16.00;;;1.57;;
15603;SDS011;7902;49.042;9.092;2023-07-29T08:53:32;14.53;;;1.30;;
15603;SDS011;7902;49.042;9.092;2023-07-29T08:55:58;13.93;;;1.10;;
15603;SDS011;7902;49.042;9.092;2023-07-29T08:58:24;15.40;;;1.67;;
15603;SDS011;7902;49.042;9.092;2023-07-29T09:00:50;16.77;;;1.53;;
15603;SDS011;7902;49.042;9.092;2023-07-29T09:03:16;15.60;;;1.10;;
15603;SDS011;7902;49.042;9.092;2023-07-29T09:05:42;15.23;;;1.30;;
15603;SDS011;7902;49.042;9.092;2023-07-29T09:08:09;14.13;;;1.20;;
15603;SDS011;7902;49.042;9.092;2023-07-29T09:10:35;14.27;;;1.30;;
15603;SDS011;7902;49.042;9.092;2023-07-29T09:13:03;14.60;;;1.20;;
15603;SDS011;7902;49.042;9.092;2023-07-29T09:15:32;15.37;;;1.20;;
15603;SDS011;7902;49.042;9.092;2023-07-29T09:18:11;14.90;;;1.30;;
15603;SDS011;7902;49.042;9.092;2023-07-29T09:20:40;15.05;;;1.35;;
15603;SDS011;7902;49.042;9.092;2023-07-29T09:23:07;17.27;;;1.40;;
15603;SDS011;7902;49.042;9.092;2023-07-29T09:25:35;21.20;;;1.50;;
15603;SDS011;7902;49.042;9.092;2023-07-29T09:28:07;14.80;;;1.27;;
15603;SDS011;7902;49.042;9.092;2023-07-29T09:30:34;19.65;;;1.58;;
15603;SDS011;7902;49.042;9.092;2023-07-29T09:33:00;14.90;;;1.47;;
15603;SDS011;7902;49.042;9.092;2023-07-29T09:35:27;18.83;;;1.13;;
15603;SDS011;7902;49.042;9.092;2023-07-29T09:37:55;15.30;;;1.20;;
15603;SDS011;7902;49.042;9.092;2023-07-29T09:40:21;18.73;;;1.63;;
15603;SDS011;7902;49.042;9.092;2023-07-29T09:42:48;16.23;;;1.60;;
15603;SDS011;7902;49.042;9.092;2023-07-29T09:45:21;17.27;;;1.23;;
15603;SDS011;7902;49.042;9.092;2023-07-29T09:47:48;17.20;;;1.63;;
15603;SDS011;7902;49.042;9.092;2023-07-29T09:50:15;14.23;;;1.20;;
15603;SDS011;7902;49.042;9.092;2023-07-29T09:52:41;14.83;;;1.40;;
15603;SDS011;7902;49.042;9.092;2023-07-29T09:55:12;14.60;;;1.20;;
15603;SDS011;7902;49.042;9.092;2023-07-29T09:57:42;21.17;;;1.77;;
15603;SDS011;7902;49.042;9.092;2023-07-29T10:00:10;14.93;;;1.70;;
15603;SDS011;7902;49.042;9.092;2023-07-29T10:02:38;26.73;;;1.53;;
15603;SDS011;7902;49.042;9.092;2023-07-29T10:05:06;14.80;;;1.30;;
15603;SDS011;7902;49.042;9.092;2023-07-29T10:07:34;14.30;;;1.40;;
15603;SDS011;7902;49.042;9.092;2023-07-29T10:10:03;14.40;;;1.40;;
15603;SDS011;7902;49.042;9.092;2023-07-29T10:12:30;14.47;;;1.50;;
15603;SDS011;7902;49.042;9.092;2023-07-29T10:15:06;14.40;;;1.30;;
15603;SDS011;7902;49.042;9.092;2023-07-29T10:17:33;13.10;;;1.20;;
15603;SDS011;7902;49.042;9.092;2023-07-29T10:20:03;12.77;;;1.00;;
15603;SDS011;7902;49.042;9.092;2023-07-29T10:22:37;12.80;;;0.90;;
15603;SDS011;7902;49.042;9.092;2023-07-29T10:25:07;13.00;;;1.10;;
15603;SDS011;7902;49.042;9.092;2023-07-29T10:27:47;14.47;;;1.20;;
15603;SDS011;7902;49.042;9.092;2023-07-29T10:30:21;18.90;;;1.20;;
15603;SDS011;7902;49.042;9.092;2023-07-29T10:32:48;13.13;;;1.00;;
15603;SDS011;7902;49.042;9.092;2023-07-29T10:35:15;15.93;;;1.20;;
15603;SDS011;7902;49.042;9.092;2023-07-29T10:37:41;13.20;;;0.90;;
15603;SDS011;7902;49.042;9.092;2023-07-29T10:40:09;15.23;;;1.30;;
15603;SDS011;7902;49.042;9.092;2023-07-29T10:42:37;15.50;;;1.40;;
15603;SDS011;7902;49.042;9.092;2023-07-29T10:48:13;13.87;;;1.03;;
15603;SDS011;7902;49.042;9.092;2023-07-29T10:56:57;16.73;;;1.00;;
15603;SDS011;7902;49.042;9.092;2023-07-29T10:59:32;15.93;;;1.20;;
15603;SDS011;7902;49.042;9.092;2023-07-29T11:02:40;14.20;;;1.00;;
15603;SDS011;7902;49.042;9.092;2023-07-29T11:05:17;15.32;;;1.40;;
15603;SDS011;7902;49.042;9.092;2023-07-29T11:08:27;14.82;;;1.20;;
15603;SDS011;7902;49.042;9.092;2023-07-29T11:11:08;26.30;;;1.35;;
15603;SDS011;7902;49.042;9.092;2023-07-29T11:13:37;16.67;;;1.02;;
15603;SDS011;7902;49.042;9.092;2023-07-29T11:16:04;17.60;;;1.10;;
15603;SDS011;7902;49.042;9.092;2023-07-29T11:18:31;15.00;;;1.30;;
15603;SDS011;7902;49.042;9.092;2023-07-29T11:20:59;16.73;;;1.38;;
15603;SDS011;7902;49.042;9.092;2023-07-29T11:23:30;16.35;;;1.10;;
15603;SDS011;7902;49.042;9.092;2023-07-29T11:25:57;15.63;;;1.00;;
15603;SDS011;7902;49.042;9.092;2023-07-29T11:28:24;17.30;;;1.10;;
15603;SDS011;7902;49.042;9.092;2023-07-29T11:30:51;15.20;;;1.02;;
15603;SDS011;7902;49.042;9.092;2023-07-29T11:33:17;15.50;;;1.10;;
15603;SDS011;7902;49.042;9.092;2023-07-29T11:35:45;15.57;;;1.10;;
15603;SDS011;7902;49.042;9.092;2023-07-29T11:38:14;15.60;;;1.08;;
15603;SDS011;7902;49.042;9.092;2023-07-29T11:40:41;16.85;;;1.30;;
15603;SDS011;7902;49.042;9.092;2023-07-29T11:43:06;15.13;;;0.95;;
15603;SDS011;7902;49.042;9.092;2023-07-29T11:45:33;15.38;;;1.05;;
15603;SDS011;7902;49.042;9.092;2023-07-29T11:48:00;16.17;;;1.08;;
15603;SDS011;7902;49.042;9.092;2023-07-29T11:50:26;15.60;;;1.10;;
15603;SDS011;7902;49.042;9.092;2023-07-29T11:52:52;17.85;;;0.93;;
15603;SDS011;7902;49.042;9.092;2023-07-29T11:55:19;15.43;;;1.15;;
15603;SDS011;7902;49.042;9.092;2023-07-29T11:57:45;16.17;;;0.98;;
15603;SDS011;7902;49.042;9.092;2023-07-29T12:00:17;16.15;;;1.40;;
15603;SDS011;7902;49.042;9.092;2023-07-29T12:02:44;17.13;;;1.15;;
15603;SDS011;7902;49.042;9.092;2023-07-29T12:05:11;15.60;;;1.23;;
15603;SDS011;7902;49.042;9.092;2023-07-29T12:07:38;23.27;;;1.33;;
15603;SDS011;7902;49.042;9.092;2023-07-29T12:10:05;15.38;;;0.90;;
15603;SDS011;7902;49.042;9.092;2023-07-29T12:12:31;16.50;;;1.40;;
15603;SDS011;7902;49.042;9.092;2023-07-29T12:14:57;16.90;;;1.35;;
15603;SDS011;7902;49.042;9.092;2023-07-29T12:17:23;16.33;;;1.48;;
15603;SDS011;7902;49.042;9.092;2023-07-29T12:19:49;15.73;;;1.20;;
15603;SDS011;7902;49.042;9.092;2023-07-29T12:22:20;16.02;;;1.00;;
15603;SDS011;7902;49.042;9.092;2023-07-29T12:24:46;16.48;;;1.30;;
15603;SDS011;7902;49.042;9.092;2023-07-29T12:27:15;16.70;;;1.38;;
15603;SDS011;7902;49.042;9.092;2023-07-29T12:29:41;16.15;;;1.50;;
15603;SDS011;7902;49.042;9.092;2023-07-29T12:32:08;16.95;;;1.30;;
15603;SDS011;7902;49.042;9.092;2023-07-29T12:34:35;21.30;;;1.60;;
15603;SDS011;7902;49.042;9.092;2023-07-29T12:37:03;16.35;;;1.42;;
15603;SDS011;7902;49.042;9.092;2023-07-29T12:39:31;16.17;;;1.17;;
15603;SDS011;7902;49.042;9.092;2023-07-29T12:41:59;16.40;;;1.40;;
15603;SDS011;7902;49.042;9.092;2023-07-29T12:44:28;16.90;;;1.25;;
15603;SDS011;7902;49.042;9.092;2023-07-29T12:47:00;18.98;;;1.50;;
15603;SDS011;7902;49.042;9.092;2023-07-29T12:49:28;16.10;;;1.25;;
15603;SDS011;7902;49.042;9.092;2023-07-29T12:51:55;16.17;;;1.27;;
15603;SDS011;7902;49.042;9.092;2023-07-29T12:54:22;15.98;;;1.33;;
15603;SDS011;7902;49.042;9.092;2023-07-29T12:56:48;16.23;;;1.25;;
15603;SDS011;7902;49.042;9.092;2023-07-29T12:59:14;16.08;;;1.20;;
15603;SDS011;7902;49.042;9.092;2023-07-29T13:01:40;16.23;;;1.23;;
15603;SDS011;7902;49.042;9.092;2023-07-29T13:04:06;19.50;;;1.60;;
15603;SDS011;7902;49.042;9.092;2023-07-29T13:06:32;19.17;;;1.20;;
15603;SDS011;7902;49.042;9.092;2023-07-29T13:08:58;16.73;;;1.42;;
15603;SDS011;7902;49.042;9.092;2023-07-29T13:11:24;19.55;;;1.50;;
15603;SDS011;7902;49.042;9.092;2023-07-29T13:13:49;18.05;;;1.45;;
15603;SDS011;7902;49.042;9.092;2023-07-29T13:16:15;16.20;;;1.40;;
15603;SDS011;7902;49.042;9.092;2023-07-29T13:18:42;16.83;;;1.42;;
15603;SDS011;7902;49.042;9.092;2023-07-29T13:21:09;18.70;;;2.00;;
15603;SDS011;7902;49.042;9.092;2023-07-29T13:23:35;16.35;;;1.40;;
15603;SDS011;7902;49.042;9.092;2023-07-29T13:26:01;18.13;;;1.42;;
15603;SDS011;7902;49.042;9.092;2023-07-29T13:28:27;19.30;;;1.35;;
15603;SDS011;7902;49.042;9.092;2023-07-29T13:30:53;16.88;;;1.45;;
15603;SDS011;7902;49.042;9.092;2023-07-29T13:33:19;17.30;;;1.40;;
15603;SDS011;7902;49.042;9.092;2023-07-29T13:35:45;17.00;;;1.23;;
15603;SDS011;7902;49.042;9.092;2023-07-29T13:38:10;24.52;;;1.40;;
15603;SDS011;7902;49.042;9.092;2023-07-29T13:40:36;19.58;;;1.58;;
15603;SDS011;7902;49.042;9.092;2023-07-29T13:43:02;18.25;;;1.58;;
15603;SDS011;7902;49.042;9.092;2023-07-29T13:45:28;17.10;;;1.38;;
15603;SDS011;7902;49.042;9.092;2023-07-29T13:47:54;19.52;;;1.65;;
15603;SDS011;7902;49.042;9.092;2023-07-29T13:50:20;18.52;;;1.20;;
15603;SDS011;7902;49.042;9.092;2023-07-29T13:52:46;17.30;;;1.40;;
15603;SDS011;7902;49.042;9.092;2023-07-29T13:55:12;16.20;;;1.33;;
15603;SDS011;7902;49.042;9.092;2023-07-29T13:57:38;19.60;;;1.60;;
15603;SDS011;7902;49.042;9.092;2023-07-29T14:00:07;17.20;;;1.40;;
15603;SDS011;7902;49.042;9.092;2023-07-29T14:02:33;17.30;;;1.50;;
15603;SDS011;7902;49.042;9.092;2023-07-29T14:04:59;23.77;;;1.70;;
15603;SDS011;7902;49.042;9.092;2023-07-29T14:07:25;18.35;;;1.65;;
15603;SDS011;7902;49.042;9.092;2023-07-29T14:09:51;17.15;;;1.40;;
15603;SDS011;7902;49.042;9.092;2023-07-29T14:12:17;19.17;;;1.58;;
15603;SDS011;7902;49.042;9.092;2023-07-29T14:14:43;18.50;;;1.50;;
15603;SDS011;7902;49.042;9.092;2023-07-29T14:17:09;16.23;;;1.40;;
15603;SDS011;7902;49.042;9.092;2023-07-29T14:19:38;18.23;;;1.92;;
15603;SDS011;7902;49.042;9.092;2023-07-29T14:22:04;20.17;;;3.42;;
15603;SDS011;7902;49.042;9.092;2023-07-29T14:24:30;16.23;;;1.50;;
15603;SDS011;7902;49.042;9.092;2023-07-29T14:26:56;18.27;;;1.30;;
15603;SDS011;7902;49.042;9.092;2023-07-29T14:29:23;17.27;;;1.85;;
15603;SDS011;7902;49.042;9.092;2023-07-29T14:31:48;22.88;;;1.50;;
15603;SDS011;7902;49.042;9.092;2023-07-29T14:34:14;15.95;;;1.27;;
15603;SDS011;7902;49.042;9.092;2023-07-29T14:36:40;18.98;;;1.92;;
15603;SDS011;7902;49.042;9.092;2023-07-29T14:39:06;16.63;;;1.75;;
15603;SDS011;7902;49.042;9.092;2023-07-29T14:41:33;16.15;;;1.30;;
15603;SDS011;7902;49.042;9.092;2023-07-29T14:43:59;17.80;;;1.80;;
15603;SDS011;7902;49.042;9.092;2023-07-29T14:46:24;17.67;;;1.60;;
15603;SDS011;7902;49.042;9.092;2023-07-29T14:48:50;16.55;;;1.50;;
15603;SDS011;7902;49.042;9.092;2023-07-29T14:51:16;15.95;;;1.40;;
15603;SDS011;7902;49.042;9.092;2023-07-29T14:53:42;17.77;;;1.48;;
15603;SDS011;7902;49.042;9.092;2023-07-29T14:56:08;17.05;;;1.45;;
15603;SDS011;7902;49.042;9.092;2023-07-29T14:58:34;20.58;;;1.77;;
15603;SDS011;7902;49.042;9.092;2023-07-29T15:01:00;16.42;;;1.45;;
15603;SDS011;7902;49.042;9.092;2023-07-29T15:03:26;16.15;;;1.50;;